createdAt,value
2022-11-29T00:01:57.500Z,55.79
2022-11-29T00:04:26.080Z,56.06
2022-11-29T00:06:54.738Z,55.56
2022-11-29T00:09:23.326Z,56.14
2022-11-29T00:12:09.350Z,56.29
2022-11-29T00:14:39.350Z,55.39
2022-11-29T00:17:08.400Z,55.10
2022-11-29T00:19:38.152Z,55.96
2022-11-29T00:22:06.905Z,55.97
2022-11-29T00:24:36.227Z,56.12
2022-11-29T00:27:05.300Z,55.97
2022-11-29T00:29:34.810Z,55.90
2022-11-29T00:32:05.273Z,55.92
2022-11-29T00:34:33.768Z,55.69
2022-11-29T00:37:02.444Z,56.25
2022-11-29T00:39:31.034Z,56.06
2022-11-29T00:41:59.694Z,56.43
2022-11-29T00:44:28.052Z,55.73
2022-11-29T00:46:56.790Z,56.00
2022-11-29T00:49:26.615Z,55.63
2022-11-29T00:51:55.375Z,56.02
2022-11-29T00:54:23.719Z,55.61
2022-11-29T00:56:52.888Z,55.67
2022-11-29T00:59:21.444Z,55.44
2022-11-29T01:01:50.174Z,55.27
2022-11-29T01:04:18.742Z,55.10
2022-11-29T01:06:52.569Z,55.00
2022-11-29T01:09:21.109Z,54.89
2022-11-29T01:11:51.066Z,54.65
2022-11-29T01:14:19.529Z,54.48
2022-11-29T01:16:48.446Z,54.71
2022-11-29T01:19:16.738Z,54.55
2022-11-29T01:21:45.440Z,54.61
2022-11-29T01:24:15.161Z,54.59
2022-11-29T01:26:43.522Z,55.30
2022-11-29T01:29:14.444Z,55.52
2022-11-29T01:31:42.831Z,54.38
2022-11-29T01:34:12.066Z,54.61
2022-11-29T01:36:40.526Z,55.05
2022-11-29T01:39:09.468Z,55.20
2022-11-29T01:41:39.581Z,55.59
2022-11-29T01:44:29.212Z,55.04
2022-11-29T01:46:58.411Z,54.64
2022-11-29T01:49:32.926Z,54.78
2022-11-29T01:52:06.064Z,54.24
2022-11-29T01:54:38.782Z,54.75
2022-11-29T01:57:10.176Z,53.96
2022-11-29T01:59:44.391Z,54.33
2022-11-29T02:02:15.645Z,54.22
2022-11-29T02:04:47.052Z,54.10
2022-11-29T02:07:16.076Z,54.21
2022-11-29T02:09:45.393Z,53.81
2022-11-29T02:12:28.739Z,54.75
2022-11-29T02:15:09.884Z,54.43
2022-11-29T02:17:53.586Z,54.31
2022-11-29T02:20:55.586Z,54.14
2022-11-29T02:23:52.703Z,54.92
2022-11-29T02:26:38.917Z,54.47
2022-11-29T02:29:44.567Z,54.42
2022-11-29T02:32:58.576Z,54.96
2022-11-29T02:35:50.776Z,55.26
2022-11-29T02:38:36.314Z,56.26
2022-11-29T02:41:23.417Z,55.93
2022-11-29T02:44:08.038Z,56.55
2022-11-29T02:46:56.368Z,56.09
2022-11-29T02:49:42.742Z,55.90
2022-11-29T02:52:19.692Z,55.65
2022-11-29T02:54:55.053Z,56.37
2022-11-29T02:57:33.076Z,55.71
2022-11-29T03:00:06.780Z,55.93
2022-11-29T03:02:42.163Z,55.08
2022-11-29T03:05:21.701Z,55.29
2022-11-29T03:07:59.853Z,55.87
2022-11-29T03:10:39.613Z,55.16
2022-11-29T03:13:19.121Z,55.31
2022-11-29T03:15:58.854Z,55.67
2022-11-29T03:18:35.827Z,55.00
2022-11-29T03:21:20.379Z,55.23
2022-11-29T03:23:51.660Z,54.52
2022-11-29T03:26:25.882Z,54.99
2022-11-29T03:29:01.296Z,55.05
2022-11-29T03:31:34.771Z,54.62
2022-11-29T03:34:17.829Z,54.23
2022-11-29T03:36:57.192Z,54.75
2022-11-29T03:39:35.430Z,54.30
2022-11-29T03:42:09.902Z,54.58
2022-11-29T03:44:47.758Z,54.18
2022-11-29T03:47:21.082Z,54.12
2022-11-29T03:49:55.788Z,54.69
2022-11-29T03:52:33.203Z,54.97
2022-11-29T03:55:20.173Z,55.31
2022-11-29T03:58:15.004Z,54.34
2022-11-29T04:01:08.349Z,55.19
2022-11-29T04:04:00.001Z,55.68
2022-11-29T04:06:48.079Z,56.36
2022-11-29T04:09:43.469Z,56.40
2022-11-29T04:12:58.553Z,56.80
2022-11-29T04:16:06.117Z,56.67
2022-11-29T04:19:13.101Z,56.55
2022-11-29T04:22:11.501Z,56.92
2022-11-29T04:25:12.242Z,57.28
2022-11-29T04:28:05.026Z,58.17
2022-11-29T04:30:47.432Z,58.10
2022-11-29T04:33:42.878Z,57.98
2022-11-29T04:36:48.882Z,58.04
2022-11-29T04:39:38.750Z,58.40
2022-11-29T04:42:36.715Z,57.55
2022-11-29T04:45:46.912Z,58.35
2022-11-29T04:48:33.652Z,58.26
2022-11-29T04:51:15.751Z,58.56
2022-11-29T04:53:53.188Z,57.34
2022-11-29T04:56:34.375Z,58.21
2022-11-29T04:59:11.209Z,58.15
2022-11-29T05:01:55.799Z,57.72
2022-11-29T05:04:31.407Z,57.97
2022-11-29T05:07:07.430Z,57.09
2022-11-29T05:09:51.225Z,57.55
2022-11-29T05:12:29.061Z,56.88
2022-11-29T05:15:18.399Z,56.87
2022-11-29T05:17:57.873Z,57.89
2022-11-29T05:20:40.293Z,57.22
2022-11-29T05:23:27.025Z,56.60
2022-11-29T05:26:02.375Z,57.45
2022-11-29T05:28:43.518Z,57.94
2022-11-29T05:31:31.551Z,58.28
2022-11-29T05:34:21.663Z,57.88
2022-11-29T05:37:02.682Z,57.84
2022-11-29T05:39:42.405Z,57.74
2022-11-29T05:42:39.839Z,56.82
2022-11-29T05:45:19.135Z,56.94
2022-11-29T05:47:55.160Z,57.45
2022-11-29T05:50:31.961Z,57.12
2022-11-29T05:53:21.764Z,58.18
2022-11-29T05:56:00.471Z,57.38
2022-11-29T05:58:48.919Z,57.50
2022-11-29T06:01:23.884Z,56.50
2022-11-29T06:03:59.371Z,56.61
2022-11-29T06:06:39.700Z,56.30
2022-11-29T06:09:17.514Z,56.36
2022-11-29T06:11:50.343Z,56.22
2022-11-29T06:14:36.847Z,55.60
2022-11-29T06:17:38.997Z,54.99
2022-11-29T06:20:34.467Z,55.27
2022-11-29T06:23:24.660Z,55.83
2022-11-29T06:26:11.303Z,55.51
2022-11-29T06:28:55.802Z,56.23
2022-11-29T06:31:28.235Z,54.86
2022-11-29T06:34:03.598Z,55.10
2022-11-29T06:36:37.254Z,55.21
2022-11-29T06:39:08.384Z,54.77
2022-11-29T06:41:37.413Z,54.67
2022-11-29T06:44:07.167Z,54.14
2022-11-29T06:46:46.973Z,54.91
2022-11-29T06:49:24.275Z,54.99
2022-11-29T06:52:04.551Z,54.56
2022-11-29T06:54:48.508Z,54.25
2022-11-29T06:57:25.375Z,53.31
2022-11-29T07:00:04.924Z,53.73
2022-11-29T07:02:56.371Z,54.00
2022-11-29T07:05:28.762Z,54.81
2022-11-29T07:07:59.415Z,54.17
2022-11-29T07:10:33.110Z,54.85
2022-11-29T07:13:02.130Z,53.97
2022-11-29T07:15:31.614Z,53.86
2022-11-29T07:18:13.263Z,53.35
2022-11-29T07:20:51.359Z,53.67
2022-11-29T07:23:28.269Z,54.38
2022-11-29T07:26:15.069Z,52.96
2022-11-29T07:29:01.779Z,53.33
2022-11-29T07:31:42.819Z,52.70
2022-11-29T07:34:20.024Z,52.39
2022-11-29T07:37:00.578Z,52.44
2022-11-29T07:39:41.801Z,53.17
2022-11-29T07:42:20.707Z,53.47
2022-11-29T07:45:00.677Z,53.61
2022-11-29T07:47:35.293Z,53.26
2022-11-29T07:50:05.256Z,52.98
2022-11-29T07:52:34.720Z,52.62
2022-11-29T07:55:03.492Z,52.53
2022-11-29T07:57:33.529Z,52.51
2022-11-29T08:00:02.053Z,52.02
2022-11-29T08:02:40.866Z,51.75
2022-11-29T08:05:10.462Z,51.54
2022-11-29T08:07:41.181Z,50.83
2022-11-29T08:10:12.068Z,50.66
2022-11-29T08:12:45.411Z,51.30
2022-11-29T08:15:14.491Z,50.50
2022-11-29T08:17:43.214Z,50.21
2022-11-29T08:20:12.816Z,49.79
2022-11-29T08:22:41.599Z,49.88
2022-11-29T08:25:11.669Z,49.35
2022-11-29T08:27:40.724Z,49.09
2022-11-29T08:30:11.212Z,48.62
2022-11-29T08:32:39.972Z,48.84
2022-11-29T08:35:08.812Z,48.49
2022-11-29T08:37:37.675Z,47.80
2022-11-29T08:40:07.443Z,47.93
2022-11-29T08:42:36.234Z,48.45
2022-11-29T08:45:06.355Z,47.41
2022-11-29T08:47:41.053Z,47.71
2022-11-29T08:50:12.435Z,47.06
2022-11-29T08:53:01.119Z,46.13
2022-11-29T08:55:33.802Z,45.57
2022-11-29T08:58:04.453Z,46.71
2022-11-29T09:00:33.839Z,45.91
2022-11-29T09:03:22.544Z,44.96
2022-11-29T09:05:51.204Z,45.58
2022-11-29T09:08:20.615Z,45.46
2022-11-29T09:10:49.403Z,45.40
2022-11-29T09:13:18.782Z,45.23
2022-11-29T09:15:47.285Z,45.38
2022-11-29T09:18:17.383Z,44.68
2022-11-29T09:20:46.104Z,44.95
2022-11-29T09:23:14.931Z,44.96
2022-11-29T09:25:49.162Z,45.12
2022-11-29T09:28:17.957Z,44.74
2022-11-29T09:30:46.339Z,45.17
2022-11-29T09:33:15.009Z,44.28
2022-11-29T09:35:44.911Z,44.44
2022-11-29T09:38:14.253Z,44.67
2022-11-29T09:40:49.627Z,44.74
2022-11-29T09:43:28.912Z,44.83
2022-11-29T09:46:04.254Z,44.68
2022-11-29T09:48:57.685Z,44.28
2022-11-29T09:51:31.649Z,45.34
2022-11-29T09:54:23.296Z,44.34
2022-11-29T09:56:55.557Z,44.88
2022-11-29T09:59:29.065Z,44.06
2022-11-29T10:02:04.053Z,44.48
2022-11-29T10:04:40.420Z,43.71
2022-11-29T10:07:18.488Z,43.61
2022-11-29T10:09:53.080Z,43.67
2022-11-29T10:12:31.707Z,43.85
2022-11-29T10:15:08.675Z,43.67
2022-11-29T10:17:41.813Z,43.97
2022-11-29T10:20:16.949Z,43.20
2022-11-29T10:22:53.683Z,43.62
2022-11-29T10:25:26.319Z,42.99
2022-11-29T10:27:55.495Z,43.57
2022-11-29T10:30:24.604Z,43.08
2022-11-29T10:32:58.926Z,43.49
2022-11-29T10:35:29.583Z,43.11
2022-11-29T10:40:57.651Z,42.90
2022-11-29T10:43:27.343Z,42.51
2022-11-29T10:45:57.155Z,42.46
2022-11-29T10:48:31.837Z,43.83
2022-11-29T10:51:01.873Z,43.43
2022-11-29T10:53:35.913Z,43.72
2022-11-29T10:56:09.563Z,44.70
2022-11-29T10:58:54.669Z,45.60
2022-11-29T11:01:24.230Z,44.96
2022-11-29T11:03:54.417Z,45.42
2022-11-29T11:06:25.425Z,45.52
2022-11-29T11:08:57.325Z,44.78
2022-11-29T11:11:29.406Z,46.26
2022-11-29T11:14:02.914Z,46.85
2022-11-29T11:16:37.141Z,47.16
2022-11-29T11:19:25.221Z,46.73
2022-11-29T11:21:54.503Z,47.03
2022-11-29T11:24:25.973Z,46.62
2022-11-29T11:26:54.904Z,46.98
2022-11-29T11:29:26.858Z,46.94
2022-11-29T11:31:57.934Z,47.54
2022-11-29T11:34:29.591Z,47.96
2022-11-29T11:37:20.281Z,46.74
2022-11-29T11:39:51.711Z,46.69
2022-11-29T11:42:39.293Z,46.40
2022-11-29T11:45:38.838Z,46.74
2022-11-29T11:48:14.912Z,46.85
2022-11-29T11:50:46.121Z,46.89
2022-11-29T11:53:22.674Z,46.50
2022-11-29T11:56:02.404Z,46.80
2022-11-29T11:58:33.886Z,47.05
2022-11-29T12:01:16.616Z,47.49
2022-11-29T12:03:52.614Z,48.45
2022-11-29T12:06:45.010Z,48.16
2022-11-29T12:09:24.602Z,48.72
2022-11-29T12:12:04.435Z,48.44
2022-11-29T12:14:43.787Z,48.04
2022-11-29T12:17:20.395Z,48.17
2022-11-29T12:20:05.564Z,47.14
2022-11-29T12:22:45.249Z,47.84
2022-11-29T12:25:23.678Z,47.39
2022-11-29T12:27:53.773Z,47.31
2022-11-29T12:30:22.648Z,49.09
2022-11-29T12:33:05.295Z,48.90
2022-11-29T12:35:49.772Z,48.39
2022-11-29T12:38:33.189Z,49.25
2022-11-29T12:41:19.311Z,49.65
2022-11-29T12:44:00.002Z,48.92
2022-11-29T12:46:30.303Z,48.41
2022-11-29T12:49:07.656Z,47.64
2022-11-29T12:51:44.571Z,47.51
2022-11-29T12:54:36.618Z,46.43
2022-11-29T12:57:11.526Z,46.95
2022-11-29T13:00:00.813Z,46.69
2022-11-29T13:02:42.372Z,46.88
2022-11-29T13:05:21.784Z,47.47
2022-11-29T13:08:12.326Z,48.32
2022-11-29T13:11:03.541Z,48.89
2022-11-29T13:13:40.239Z,49.09
2022-11-29T13:16:31.136Z,48.64
2022-11-29T13:19:10.206Z,49.25
2022-11-29T13:21:46.765Z,49.59
2022-11-29T13:24:23.792Z,49.28
2022-11-29T13:26:54.555Z,48.52
2022-11-29T13:29:23.647Z,48.52
2022-11-29T13:31:53.709Z,49.10
2022-11-29T13:34:27.303Z,49.58
2022-11-29T13:37:06.021Z,48.88
2022-11-29T13:39:49.993Z,49.22
2022-11-29T13:42:24.917Z,49.65
2022-11-29T13:45:04.074Z,50.00
2022-11-29T13:47:34.013Z,49.58
2022-11-29T13:50:06.201Z,49.39
2022-11-29T13:52:45.202Z,51.02
2022-11-29T13:55:28.630Z,50.50
2022-11-29T13:58:18.895Z,51.28
2022-11-29T14:00:52.757Z,50.19
2022-11-29T14:03:31.219Z,50.31
2022-11-29T14:06:10.373Z,49.58
2022-11-29T14:11:36.792Z,49.79
2022-11-29T14:14:09.511Z,50.12
2022-11-29T14:16:47.569Z,49.03
2022-11-29T14:19:32.802Z,49.17
2022-11-29T14:22:23.180Z,49.31
2022-11-29T14:25:08.158Z,49.81
2022-11-29T14:27:58.059Z,49.33
2022-11-29T14:30:51.299Z,49.52
2022-11-29T14:33:33.333Z,50.26
2022-11-29T14:36:26.814Z,51.38
2022-11-29T14:39:06.039Z,51.92
2022-11-29T14:41:50.661Z,51.88
2022-11-29T14:44:24.275Z,51.09
2022-11-29T14:47:02.650Z,51.52
2022-11-29T14:49:33.453Z,51.01
2022-11-29T14:52:27.248Z,52.19
2022-11-29T14:55:02.196Z,52.98
2022-11-29T14:58:13.817Z,53.05
2022-11-29T15:00:56.171Z,52.33
2022-11-29T15:03:32.854Z,52.52
2022-11-29T15:06:13.116Z,52.90
2022-11-29T15:08:51.992Z,54.07
2022-11-29T15:11:37.770Z,54.68
2022-11-29T15:14:08.306Z,54.38
2022-11-29T15:16:51.668Z,54.50
2022-11-29T15:20:01.253Z,55.00
2022-11-29T15:22:39.117Z,54.49
2022-11-29T15:25:14.764Z,54.97
2022-11-29T15:27:54.574Z,56.67
2022-11-29T15:30:30.218Z,55.42
2022-11-29T15:33:00.962Z,55.44
2022-11-29T15:35:29.871Z,55.68
2022-11-29T15:37:58.688Z,55.27
2022-11-29T15:40:35.464Z,55.58
2022-11-29T15:43:16.636Z,55.41
2022-11-29T15:45:48.703Z,55.74
2022-11-29T15:48:21.164Z,55.00
2022-11-29T15:50:56.433Z,53.85
2022-11-29T15:53:29.144Z,53.79
2022-11-29T15:56:02.184Z,53.23
2022-11-29T15:58:34.019Z,53.05
2022-11-29T16:01:03.699Z,52.85
2022-11-29T16:03:46.581Z,53.84
2022-11-29T16:06:25.313Z,53.50
2022-11-29T16:08:55.428Z,53.85
2022-11-29T16:11:29.429Z,53.58
2022-11-29T16:14:14.451Z,54.48
2022-11-29T16:16:45.378Z,54.65
2022-11-29T16:19:24.417Z,55.11
2022-11-29T16:22:18.412Z,55.33
2022-11-29T16:24:53.278Z,54.45
2022-11-29T16:27:24.130Z,54.15
2022-11-29T16:29:55.690Z,53.27
2022-11-29T16:32:30.143Z,54.12
2022-11-29T16:35:08.057Z,54.05
2022-11-29T16:37:41.633Z,54.75
2022-11-29T16:40:22.554Z,54.06
2022-11-29T16:43:08.771Z,53.80
2022-11-29T16:45:39.541Z,53.91
2022-11-29T16:48:29.943Z,53.82
2022-11-29T16:51:18.297Z,53.61
2022-11-29T16:53:49.870Z,55.23
2022-11-29T16:56:20.363Z,54.83
2022-11-29T16:59:16.928Z,55.52
2022-11-29T17:01:43.091Z,54.70
2022-11-29T17:04:11.557Z,55.65
2022-11-29T17:06:53.203Z,55.06
2022-11-29T17:09:25.533Z,54.69
2022-11-29T17:11:54.408Z,55.25
2022-11-29T17:14:24.318Z,55.83
2022-11-29T17:16:53.092Z,56.06
2022-11-29T17:19:23.817Z,55.46
2022-11-29T17:21:53.378Z,56.03
2022-11-29T17:24:23.201Z,55.32
2022-11-29T17:26:52.627Z,55.06
2022-11-29T17:29:20.995Z,54.92
2022-11-29T17:31:53.257Z,55.80
2022-11-29T17:34:21.686Z,55.45
2022-11-29T17:36:50.987Z,54.77
2022-11-29T17:39:20.308Z,54.30
2022-11-29T17:41:49.144Z,54.71
2022-11-29T17:44:17.670Z,54.27
2022-11-29T17:46:46.456Z,54.23
2022-11-29T17:49:18.635Z,54.11
2022-11-29T17:51:52.337Z,54.53
2022-11-29T17:54:21.981Z,54.35
2022-11-29T17:56:50.919Z,54.05
2022-11-29T17:59:19.421Z,54.62
2022-11-29T18:01:48.188Z,53.79
2022-11-29T18:04:18.293Z,53.58
2022-11-29T18:06:50.252Z,53.58
2022-11-29T18:09:20.127Z,54.72
2022-11-29T18:11:50.602Z,54.55
2022-11-29T18:14:21.352Z,54.24
2022-11-29T18:16:50.324Z,54.02
2022-11-29T18:19:22.993Z,54.03
2022-11-29T18:21:52.378Z,53.86
2022-11-29T18:24:20.992Z,54.04
2022-11-29T18:26:49.856Z,54.12
2022-11-29T18:29:18.811Z,54.56
2022-11-29T18:31:48.150Z,53.54
2022-11-29T18:34:16.842Z,53.93
2022-11-29T18:36:48.495Z,53.56
2022-11-29T18:39:19.265Z,54.01
2022-11-29T18:41:49.726Z,54.25
2022-11-29T18:44:20.235Z,54.25
2022-11-29T18:46:49.149Z,53.11
2022-11-29T18:49:19.423Z,53.24
2022-11-29T18:51:50.861Z,53.16
2022-11-29T18:54:20.218Z,53.45
2022-11-29T18:56:51.854Z,53.67
2022-11-29T18:59:22.093Z,53.17
2022-11-29T19:01:50.797Z,53.41
2022-11-29T19:04:21.524Z,53.54
2022-11-29T19:06:51.544Z,53.46
2022-11-29T19:09:22.058Z,53.70
2022-11-29T19:11:51.603Z,53.39
2022-11-29T19:14:20.870Z,53.11
2022-11-29T19:16:50.638Z,53.16
2022-11-29T19:19:19.949Z,53.32
2022-11-29T19:21:49.098Z,53.47
2022-11-29T19:24:19.885Z,53.65
2022-11-29T19:26:50.575Z,54.00
2022-11-29T19:29:19.191Z,53.56
2022-11-29T19:31:47.918Z,53.37
2022-11-29T19:34:16.302Z,54.14
2022-11-29T19:36:45.635Z,53.28
2022-11-29T19:39:16.234Z,53.58
2022-11-29T19:41:47.991Z,53.92
2022-11-29T19:44:16.897Z,53.69
2022-11-29T19:46:48.714Z,53.76
2022-11-29T19:49:18.008Z,54.31
2022-11-29T19:51:46.483Z,54.20
2022-11-29T19:54:15.612Z,53.70
2022-11-29T19:56:45.689Z,54.40
2022-11-29T19:59:15.886Z,55.40
2022-11-29T20:01:44.339Z,54.92
2022-11-29T20:04:16.614Z,54.61
2022-11-29T20:06:46.979Z,54.85
2022-11-29T20:09:15.982Z,54.28
2022-11-29T20:11:45.931Z,54.84
2022-11-29T20:14:15.234Z,55.37
2022-11-29T20:16:43.816Z,55.47
2022-11-29T20:19:14.026Z,54.91
2022-11-29T20:21:44.467Z,55.25
2022-11-29T20:24:14.415Z,54.67
2022-11-29T20:26:46.398Z,54.62
2022-11-29T20:29:16.008Z,54.31
2022-11-29T20:31:49.940Z,54.08
2022-11-29T20:34:20.842Z,54.65
2022-11-29T20:37:19.498Z,55.15
2022-11-29T20:39:55.052Z,54.39
2022-11-29T20:42:42.197Z,54.93
2022-11-29T20:45:14.411Z,54.55
2022-11-29T20:47:52.006Z,55.00
2022-11-29T20:50:24.069Z,55.34
2022-11-29T20:53:12.742Z,55.52
2022-11-29T20:55:47.770Z,56.36
2022-11-29T20:58:19.515Z,56.55
2022-11-29T21:00:48.318Z,55.76
2022-11-29T21:03:17.325Z,55.97
2022-11-29T21:05:46.821Z,56.76
2022-11-29T21:08:17.135Z,56.39
2022-11-29T21:10:46.604Z,56.96
2022-11-29T21:13:17.662Z,56.80
2022-11-29T21:15:47.268Z,56.75
2022-11-29T21:18:23.601Z,57.26
2022-11-29T21:21:08.263Z,57.21
2022-11-29T21:23:47.700Z,57.79
2022-11-29T21:26:21.441Z,58.75
2022-11-29T21:29:02.755Z,58.24
2022-11-29T21:31:32.169Z,58.27
2022-11-29T21:34:01.094Z,58.00
2022-11-29T21:36:30.554Z,58.08
2022-11-29T21:39:03.576Z,57.64
2022-11-29T21:41:33.941Z,57.06
2022-11-29T21:44:07.183Z,57.09
2022-11-29T21:46:37.285Z,57.27
2022-11-29T21:49:06.296Z,57.01
2022-11-29T21:51:35.262Z,56.56
2022-11-29T21:54:03.756Z,57.07
2022-11-29T21:56:32.572Z,56.59
2022-11-29T21:59:01.015Z,57.00
2022-11-29T22:01:33.639Z,56.83
2022-11-29T22:04:02.121Z,56.15
2022-11-29T22:06:30.780Z,56.72
2022-11-29T22:09:00.061Z,57.03
2022-11-29T22:11:31.903Z,57.65
2022-11-29T22:14:18.433Z,56.82
2022-11-29T22:16:50.825Z,56.61
2022-11-29T22:19:21.550Z,56.04
2022-11-29T22:21:52.604Z,56.35
2022-11-29T22:24:23.439Z,56.10
2022-11-29T22:26:53.311Z,56.56
2022-11-29T22:29:22.375Z,56.05
2022-11-29T22:31:55.501Z,56.42
2022-11-29T22:34:25.242Z,57.03
2022-11-29T22:36:54.303Z,56.65
2022-11-29T22:39:24.807Z,56.50
2022-11-29T22:41:55.031Z,56.08
2022-11-29T22:44:23.834Z,55.88
2022-11-29T22:46:53.994Z,56.09
2022-11-29T22:49:22.518Z,56.14
2022-11-29T22:51:52.247Z,56.41
2022-11-29T22:54:20.724Z,56.13
2022-11-29T22:56:49.514Z,56.28
2022-11-29T22:59:17.930Z,56.46
2022-11-29T23:01:47.106Z,56.26
2022-11-29T23:04:16.951Z,57.18
2022-11-29T23:06:46.994Z,56.81
2022-11-29T23:09:18.914Z,57.11
2022-11-29T23:11:51.076Z,57.19
2022-11-29T23:14:20.216Z,56.35
2022-11-29T23:16:48.873Z,56.50
2022-11-29T23:19:18.814Z,57.42
2022-11-29T23:21:47.546Z,57.17
2022-11-29T23:24:16.872Z,57.60
2022-11-29T23:26:47.357Z,57.56
2022-11-29T23:29:18.122Z,58.18
2022-11-29T23:31:47.799Z,57.82
2022-11-29T23:34:16.351Z,58.41
2022-11-29T23:36:52.420Z,58.26
2022-11-29T23:39:21.830Z,58.58
2022-11-29T23:41:50.829Z,58.28
2022-11-29T23:44:19.265Z,59.21
2022-11-29T23:46:47.879Z,58.76
2022-11-29T23:49:16.240Z,59.09
2022-11-29T23:51:46.297Z,59.03
2022-11-29T23:54:14.649Z,58.83
2022-11-29T23:56:43.317Z,59.44
2022-11-29T23:59:11.685Z,58.71
